Time;durP1;ratioP1;P1;durP2;ratioP2;P2;SDS_P1;SDS_P2;PMS_P1;PMS_P2;Temp;Humidity;BMP_temperature;BMP_pressure;BME280_temperature;BME280_humidity;BME280_pressure;Samples;Min_cycle;Max_cycle;Signal;HPM_P1;HPM_P2
2023/01/03 00:00:14;;;;;;;0.60;0.22;;;;;;;;;;5114718;28;20027;-56
2023/01/03 00:02:40;;;;;;;0.55;0.28;;;;;;;;;;5114872;28;20092;-57
2023/01/03 00:05:06;;;;;;;0.50;0.28;;;;;;;;;;5115294;28;20020;-58
2023/01/03 00:07:32;;;;;;;2.72;0.38;;;;;;;;;;5115214;28;20087;-58
2023/01/03 00:10:00;;;;;;;0.32;0.20;;;;;;;;;;5114623;28;20127;-57
2023/01/03 00:12:26;;;;;;;0.70;0.35;;;;;;;;;;5114671;28;20039;-57
2023/01/03 00:14:52;;;;;;;0.60;0.30;;;;;;;;;;5115150;28;20081;-57
2023/01/03 00:17:19;;;;;;;0.73;0.30;;;;;;;;;;5114563;28;20365;-57
2023/01/03 00:19:46;;;;;;;0.65;0.30;;;;;;;;;;5114505;28;20031;-57
2023/01/03 00:22:12;;;;;;;0.60;0.30;;;;;;;;;;5114838;28;20035;-57
2023/01/03 00:24:38;;;;;;;0.60;0.40;;;;;;;;;;5114553;28;20448;-57
2023/01/03 00:27:04;;;;;;;1.00;0.40;;;;;;;;;;5114276;28;20055;-57
2023/01/03 00:29:30;;;;;;;0.60;0.20;;;;;;;;;;5114375;28;20435;-57
2023/01/03 00:31:56;;;;;;;0.85;0.30;;;;;;;;;;5114619;28;20038;-56
2023/01/03 00:34:23;;;;;;;0.38;0.15;;;;;;;;;;5114340;28;20102;-57
2023/01/03 00:36:49;;;;;;;0.57;0.40;;;;;;;;;;5114278;28;20118;-57
2023/01/03 00:39:15;;;;;;;1.20;0.50;;;;;;;;;;5114528;28;20466;-56
2023/01/03 00:41:41;;;;;;;0.57;0.28;;;;;;;;;;5114647;28;20060;-57
2023/01/03 00:44:07;;;;;;;0.65;0.32;;;;;;;;;;5114991;28;20377;-58
2023/01/03 00:46:34;;;;;;;3.53;0.65;;;;;;;;;;5114129;28;20043;-57
2023/01/03 00:49:00;;;;;;;0.05;0.05;;;;;;;;;;5114162;28;20108;-58
2023/01/03 00:51:28;;;;;;;0.75;0.30;;;;;;;;;;5114207;28;20020;-58
2023/01/03 00:53:55;;;;;;;1.08;0.47;;;;;;;;;;5114144;28;20063;-57
2023/01/03 00:56:22;;;;;;;1.75;0.70;;;;;;;;;;5114321;28;20407;-57
2023/01/03 00:58:48;;;;;;;0.47;0.32;;;;;;;;;;5114190;28;20575;-57
2023/01/03 01:01:18;;;;;;;1.33;0.50;;;;;;;;;;5114567;28;20035;-57
2023/01/03 01:03:46;;;;;;;0.68;0.30;;;;;;;;;;5074324;28;20094;-57
2023/01/03 01:06:16;;;;;;;1.58;0.40;;;;;;;;;;5073881;28;20036;-57
2023/01/03 01:08:42;;;;;;;1.23;0.60;;;;;;;;;;5073471;28;20049;-57
2023/01/03 01:11:09;;;;;;;0.77;0.32;;;;;;;;;;5073357;28;20025;-57
2023/01/03 01:13:35;;;;;;;0.98;0.43;;;;;;;;;;5073665;28;20029;-57
2023/01/03 01:16:03;;;;;;;0.80;0.35;;;;;;;;;;5073903;28;20028;-57
2023/01/03 01:18:29;;;;;;;0.38;0.20;;;;;;;;;;5073291;28;20028;-57
2023/01/03 01:20:55;;;;;;;0.55;0.28;;;;;;;;;;5073632;28;20461;-56
2023/01/03 01:23:20;;;;;;;1.42;1.02;;;;;;;;;;5073544;28;20020;-57
2023/01/03 01:25:46;;;;;;;0.70;0.32;;;;;;;;;;5073611;28;20024;-57
2023/01/03 01:28:12;;;;;;;0.43;0.25;;;;;;;;;;5073806;28;20031;-57
2023/01/03 01:30:38;;;;;;;0.55;0.28;;;;;;;;;;5073120;28;20450;-55
2023/01/03 01:33:04;;;;;;;1.38;0.50;;;;;;;;;;5073281;28;20106;-56
2023/01/03 01:35:31;;;;;;;1.50;0.50;;;;;;;;;;5073172;28;20024;-56
2023/01/03 01:37:57;;;;;;;0.85;0.40;;;;;;;;;;5072543;28;20102;-56
2023/01/03 01:40:23;;;;;;;1.05;0.65;;;;;;;;;;5073329;28;20024;-56
2023/01/03 01:45:34;;;;;;;1.27;0.57;;;;;;;;;;5073021;28;20075;-56
2023/01/03 01:48:02;;;;;;;1.40;0.93;;;;;;;;;;5073363;28;20450;-56
2023/01/03 01:50:28;;;;;;;1.20;0.40;;;;;;;;;;5073470;28;20064;-56
2023/01/03 01:52:56;;;;;;;0.70;0.25;;;;;;;;;;5073467;28;20478;-57
2023/01/03 01:55:24;;;;;;;0.63;0.35;;;;;;;;;;5072958;28;20424;-56
2023/01/03 01:57:50;;;;;;;1.10;0.70;;;;;;;;;;5076316;28;20059;-56
2023/01/03 02:00:16;;;;;;;2.20;0.70;;;;;;;;;;5075965;28;20020;-56
2023/01/03 02:02:43;;;;;;;1.48;0.60;;;;;;;;;;5099874;28;20090;-56
2023/01/03 02:05:09;;;;;;;0.50;0.30;;;;;;;;;;5117664;28;20028;-56
2023/01/03 02:07:37;;;;;;;0.82;0.60;;;;;;;;;;5116961;28;20385;-56
2023/01/03 02:10:03;;;;;;;0.85;0.32;;;;;;;;;;5116602;28;20508;-56
2023/01/03 02:15:16;;;;;;;1.88;0.75;;;;;;;;;;5117030;28;20484;-56
2023/01/03 02:17:56;;;;;;;0.85;0.43;;;;;;;;;;5117100;28;20040;-59
2023/01/03 02:20:28;;;;;;;0.90;0.30;;;;;;;;;;5116812;28;20034;-59
2023/01/03 02:23:03;;;;;;;0.80;0.40;;;;;;;;;;5117297;28;20084;-59
2023/01/03 02:25:35;;;;;;;2.30;0.90;;;;;;;;;;5116646;28;20350;-56
2023/01/03 02:28:01;;;;;;;0.73;0.30;;;;;;;;;;5116931;28;20486;-56
2023/01/03 02:30:39;;;;;;;1.55;0.40;;;;;;;;;;5116929;28;20101;-56
2023/01/03 02:33:20;;;;;;;0.70;0.45;;;;;;;;;;5116502;28;20122;-56
2023/01/03 02:36:05;;;;;;;0.88;0.32;;;;;;;;;;5117084;28;20119;-56
2023/01/03 02:38:43;;;;;;;1.20;0.52;;;;;;;;;;5116458;28;20011;-56
2023/01/03 02:41:15;;;;;;;0.75;0.32;;;;;;;;;;5116404;28;20476;-56
2023/01/03 02:43:45;;;;;;;0.75;0.30;;;;;;;;;;5116341;28;20023;-56
2023/01/03 02:46:29;;;;;;;0.85;0.30;;;;;;;;;;5116798;28;20459;-56
2023/01/03 02:49:14;;;;;;;0.82;0.45;;;;;;;;;;5116189;28;20027;-56
2023/01/03 02:51:43;;;;;;;0.80;0.50;;;;;;;;;;5116220;28;20446;-55
2023/01/03 02:54:11;;;;;;;0.47;0.22;;;;;;;;;;5116685;28;20501;-56
2023/01/03 02:56:39;;;;;;;1.42;0.75;;;;;;;;;;5116422;28;20032;-56
2023/01/03 02:59:08;;;;;;;0.73;0.22;;;;;;;;;;5116552;28;20020;-56
2023/01/03 03:01:35;;;;;;;1.52;0.60;;;;;;;;;;5116058;28;20027;-56
2023/01/03 03:04:02;;;;;;;0.40;0.20;;;;;;;;;;5116234;28;20068;-56
2023/01/03 03:06:34;;;;;;;0.68;0.30;;;;;;;;;;5115842;28;20027;-56
2023/01/03 03:09:00;;;;;;;0.43;0.20;;;;;;;;;;5115424;28;20039;-56
2023/01/03 03:14:28;;;;;;;0.60;0.32;;;;;;;;;;5116089;28;20073;-56
2023/01/03 03:16:55;;;;;;;0.95;0.43;;;;;;;;;;5115680;28;20031;-56
2023/01/03 03:25:14;;;;;;;0.68;0.28;;;;;;;;;;5115365;28;20480;-56
2023/01/03 03:30:28;;;;;;;0.45;0.28;;;;;;;;;;5115544;28;20097;-56
2023/01/03 03:32:55;;;;;;;2.75;0.50;;;;;;;;;;5115672;28;20107;-56
2023/01/03 03:35:23;;;;;;;0.85;0.30;;;;;;;;;;5115913;28;20096;-56
2023/01/03 03:37:51;;;;;;;0.95;0.43;;;;;;;;;;5115781;28;20032;-56
2023/01/03 03:45:55;;;;;;;0.30;0.20;;;;;;;;;;5115143;28;20076;-56
2023/01/03 03:51:28;;;;;;;1.27;0.75;;;;;;;;;;5115165;28;20370;-56
2023/01/03 03:53:55;;;;;;;3.58;0.60;;;;;;;;;;5115030;28;20030;-55
2023/01/03 03:56:23;;;;;;;0.90;0.47;;;;;;;;;;5114971;28;20098;-56
2023/01/03 03:58:52;;;;;;;1.33;0.50;;;;;;;;;;5115049;28;20019;-56
2023/01/03 04:01:19;;;;;;;1.02;0.50;;;;;;;;;;5114878;28;20102;-55
2023/01/03 04:03:46;;;;;;;0.65;0.30;;;;;;;;;;5114788;28;20062;-56
2023/01/03 04:06:18;;;;;;;0.60;0.22;;;;;;;;;;5114947;28;20036;-55
2023/01/03 04:08:44;;;;;;;0.85;0.30;;;;;;;;;;5114456;28;20441;-56
2023/01/03 04:11:10;;;;;;;0.38;0.28;;;;;;;;;;5114394;28;20102;-57
2023/01/03 04:13:37;;;;;;;0.57;0.30;;;;;;;;;;5115203;28;20058;-56
2023/01/03 04:16:04;;;;;;;0.88;0.47;;;;;;;;;;5115411;28;20028;-57
2023/01/03 04:18:30;;;;;;;1.25;0.43;;;;;;;;;;5096835;28;20031;-57
2023/01/03 04:20:56;;;;;;;1.27;0.63;;;;;;;;;;5114680;28;20039;-57
2023/01/03 04:23:22;;;;;;;0.90;0.45;;;;;;;;;;5114181;28;20469;-56
2023/01/03 04:25:48;;;;;;;1.10;0.40;;;;;;;;;;5114733;28;20032;-56
2023/01/03 04:28:14;;;;;;;1.10;0.52;;;;;;;;;;5115153;28;20055;-57
2023/01/03 04:30:40;;;;;;;1.00;0.70;;;;;;;;;;5113985;28;20050;-56
2023/01/03 04:33:06;;;;;;;1.23;0.55;;;;;;;;;;5114283;28;20028;-56
2023/01/03 04:35:32;;;;;;;0.63;0.32;;;;;;;;;;5114727;28;20032;-56
2023/01/03 04:37:58;;;;;;;1.20;0.70;;;;;;;;;;5114392;28;20449;-56
2023/01/03 04:40:24;;;;;;;1.20;0.70;;;;;;;;;;5114318;28;20027;-56
2023/01/03 04:45:35;;;;;;;2.17;0.90;;;;;;;;;;5114636;28;20381;-56
2023/01/03 04:48:01;;;;;;;1.02;0.57;;;;;;;;;;5114378;28;20483;-57
2023/01/03 04:50:29;;;;;;;0.93;0.47;;;;;;;;;;5114276;28;20059;-56
2023/01/03 04:52:55;;;;;;;0.65;0.35;;;;;;;;;;5114261;28;20019;-56
2023/01/03 04:55:20;;;;;;;2.25;0.73;;;;;;;;;;5114610;28;20023;-57
2023/01/03 04:57:46;;;;;;;1.02;0.60;;;;;;;;;;5114239;28;20028;-57
2023/01/03 05:00:13;;;;;;;1.10;0.57;;;;;;;;;;5113869;28;20024;-55
2023/01/03 05:02:39;;;;;;;0.98;0.47;;;;;;;;;;5114297;28;20047;-56
2023/01/03 05:05:05;;;;;;;4.38;0.75;;;;;;;;;;5114537;28;20023;-56
2023/01/03 05:07:31;;;;;;;1.85;0.88;;;;;;;;;;5114323;28;20036;-56
2023/01/03 05:09:57;;;;;;;2.20;0.82;;;;;;;;;;5095903;28;20359;-56
2023/01/03 05:12:23;;;;;;;2.45;0.88;;;;;;;;;;5114077;28;20020;-56
2023/01/03 05:14:49;;;;;;;1.20;0.63;;;;;;;;;;5114088;28;20511;-57
2023/01/03 05:17:15;;;;;;;0.90;0.52;;;;;;;;;;5113985;28;20031;-56
2023/01/03 05:27:56;;;;;;;1.75;1.05;;;;;;;;;;5113732;28;20134;-57
2023/01/03 05:30:21;;;;;;;0.82;0.50;;;;;;;;;;5113658;28;20431;-53
2023/01/03 05:32:47;;;;;;;0.77;0.40;;;;;;;;;;5117308;28;20027;-57
2023/01/03 05:35:14;;;;;;;1.33;0.68;;;;;;;;;;5118187;28;20036;-57
2023/01/03 05:37:39;;;;;;;1.08;0.60;;;;;;;;;;5118270;28;20122;-57
2023/01/03 05:40:06;;;;;;;1.23;0.60;;;;;;;;;;5117657;28;20058;-57
2023/01/03 05:42:32;;;;;;;0.95;0.45;;;;;;;;;;5118125;28;20034;-55
2023/01/03 05:44:58;;;;;;;2.35;1.08;;;;;;;;;;5117925;28;20031;-57
2023/01/03 05:47:24;;;;;;;0.82;0.45;;;;;;;;;;5117951;28;20031;-57
2023/01/03 05:49:50;;;;;;;0.70;0.43;;;;;;;;;;5118048;28;20152;-55
2023/01/03 05:52:16;;;;;;;2.50;1.13;;;;;;;;;;5117534;28;20055;-57
2023/01/03 05:54:42;;;;;;;2.55;1.38;;;;;;;;;;5117466;28;20035;-57
2023/01/03 05:57:08;;;;;;;1.45;0.82;;;;;;;;;;5117879;28;20369;-56
2023/01/03 05:59:34;;;;;;;1.92;0.90;;;;;;;;;;5117751;28;20074;-57
2023/01/03 06:02:00;;;;;;;2.13;0.98;;;;;;;;;;5117242;28;20051;-57
2023/01/03 06:04:26;;;;;;;6.30;1.33;;;;;;;;;;5117228;28;20023;-57
2023/01/03 06:06:52;;;;;;;1.30;0.57;;;;;;;;;;5117152;28;20024;-55
2023/01/03 06:09:18;;;;;;;2.28;0.80;;;;;;;;;;5117101;28;20077;-57
2023/01/03 06:11:44;;;;;;;0.77;0.50;;;;;;;;;;5117142;28;20019;-56
2023/01/03 06:14:10;;;;;;;1.60;0.85;;;;;;;;;;5099378;28;20510;-56
2023/01/03 06:19:20;;;;;;;1.65;0.90;;;;;;;;;;5117302;28;20112;-57
2023/01/03 06:21:46;;;;;;;1.85;0.93;;;;;;;;;;5117222;28;20055;-57
2023/01/03 06:24:12;;;;;;;1.98;1.10;;;;;;;;;;5117212;28;20031;-57
2023/01/03 06:26:38;;;;;;;1.33;0.68;;;;;;;;;;5116502;28;20076;-57
2023/01/03 06:29:05;;;;;;;2.67;0.98;;;;;;;;;;5098372;28;20031;-55
2023/01/03 06:31:31;;;;;;;1.88;0.70;;;;;;;;;;5117009;28;20035;-56
2023/01/03 06:33:57;;;;;;;2.35;1.30;;;;;;;;;;5116909;28;20202;-57
2023/01/03 06:36:24;;;;;;;4.20;1.65;;;;;;;;;;5117126;28;20412;-55
2023/01/03 06:38:51;;;;;;;1.40;0.98;;;;;;;;;;5117044;28;20024;-56
2023/01/03 06:41:17;;;;;;;2.35;1.20;;;;;;;;;;5116183;28;20020;-55
2023/01/03 06:43:43;;;;;;;1.25;0.63;;;;;;;;;;5116146;28;20038;-57
2023/01/03 06:54:29;;;;;;;2.13;1.58;;;;;;;;;;5116711;28;20034;-57
2023/01/03 06:56:55;;;;;;;2.22;1.13;;;;;;;;;;5116152;28;20049;-57
2023/01/03 06:59:21;;;;;;;1.98;1.20;;;;;;;;;;5115837;28;20028;-57
2023/01/03 07:01:48;;;;;;;2.22;1.20;;;;;;;;;;5116000;28;20063;-57
2023/01/03 07:04:14;;;;;;;2.85;1.20;;;;;;;;;;5116424;28;20106;-54
2023/01/03 07:06:40;;;;;;;2.08;1.20;;;;;;;;;;5115984;28;20027;-55
2023/01/03 07:09:07;;;;;;;3.03;1.48;;;;;;;;;;5115918;28;20020;-57
2023/01/03 07:11:34;;;;;;;2.10;1.25;;;;;;;;;;5115965;28;20020;-57
2023/01/03 07:14:01;;;;;;;4.25;1.20;;;;;;;;;;5116125;28;20031;-57
2023/01/03 07:16:28;;;;;;;1.88;0.88;;;;;;;;;;5115700;28;20655;-57
2023/01/03 07:18:55;;;;;;;2.65;1.05;;;;;;;;;;5115796;28;20410;-57
2023/01/03 07:21:21;;;;;;;1.50;0.60;;;;;;;;;;5116067;28;20054;-56
2023/01/03 07:23:47;;;;;;;5.95;1.45;;;;;;;;;;5116211;28;20365;-55
2023/01/03 07:26:13;;;;;;;1.17;0.77;;;;;;;;;;5115981;28;20031;-57
2023/01/03 07:28:39;;;;;;;3.40;1.35;;;;;;;;;;5115609;28;20153;-56
2023/01/03 07:31:06;;;;;;;1.42;0.80;;;;;;;;;;5115507;28;20094;-59
2023/01/03 07:33:33;;;;;;;2.63;1.00;;;;;;;;;;5116267;28;20383;-58
2023/01/03 07:36:03;;;;;;;3.17;1.23;;;;;;;;;;5116140;28;20074;-55
2023/01/03 07:38:29;;;;;;;2.00;0.93;;;;;;;;;;5116030;28;20028;-56
2023/01/03 07:40:56;;;;;;;3.25;1.30;;;;;;;;;;5115626;28;20028;-57
2023/01/03 07:43:37;;;;;;;2.15;1.00;;;;;;;;;;5115473;28;20023;-56
2023/01/03 07:46:14;;;;;;;1.85;1.00;;;;;;;;;;5115438;28;20019;-57
2023/01/03 07:48:40;;;;;;;1.27;0.75;;;;;;;;;;5114960;28;20066;-54
2023/01/03 07:51:07;;;;;;;6.57;1.40;;;;;;;;;;5114973;28;20074;-57
2023/01/03 07:53:33;;;;;;;2.92;1.35;;;;;;;;;;5115337;28;20027;-57
2023/01/03 07:56:03;;;;;;;3.22;1.63;;;;;;;;;;5114523;28;20473;-56
2023/01/03 07:58:31;;;;;;;1.50;0.80;;;;;;;;;;5114800;28;20106;-57
2023/01/03 08:01:01;;;;;;;3.92;1.55;;;;;;;;;;5114681;28;20040;-57
2023/01/03 08:03:27;;;;;;;5.95;1.40;;;;;;;;;;5115387;28;20108;-56
2023/01/03 08:05:53;;;;;;;3.72;1.90;;;;;;;;;;5115279;28;20043;-57
2023/01/03 08:08:19;;;;;;;11.32;3.30;;;;;;;;;;5114956;28;20028;-57
2023/01/03 08:13:29;;;;;;;2.97;1.85;;;;;;;;;;5115082;28;20031;-56
2023/01/03 08:15:56;;;;;;;4.38;1.90;;;;;;;;;;5115114;28;20032;-56
2023/01/03 08:18:23;;;;;;;3.20;1.80;;;;;;;;;;5114611;28;20361;-56
2023/01/03 08:20:50;;;;;;;2.80;1.95;;;;;;;;;;5114994;28;20061;-56
2023/01/03 08:23:16;;;;;;;2.92;1.92;;;;;;;;;;5115047;28;20028;-56
2023/01/03 08:25:42;;;;;;;4.68;2.45;;;;;;;;;;5114992;28;20024;-57
2023/01/03 08:28:09;;;;;;;4.55;2.55;;;;;;;;;;5114823;28;20023;-55
2023/01/03 08:30:37;;;;;;;4.78;2.35;;;;;;;;;;5114171;28;20028;-56
2023/01/03 08:33:03;;;;;;;3.10;1.88;;;;;;;;;;5095884;28;20069;-54
2023/01/03 08:35:32;;;;;;;2.92;1.85;;;;;;;;;;5114527;28;20419;-56
2023/01/03 08:38:01;;;;;;;4.03;2.35;;;;;;;;;;5115065;28;20119;-56
2023/01/03 08:40:27;;;;;;;1.63;1.25;;;;;;;;;;5114599;28;20028;-57
2023/01/03 08:42:53;;;;;;;5.00;2.05;;;;;;;;;;5114412;28;20406;-57
2023/01/03 08:45:19;;;;;;;2.10;1.50;;;;;;;;;;5114863;28;20031;-57
2023/01/03 08:47:45;;;;;;;2.75;1.45;;;;;;;;;;5114395;28;20027;-58
2023/01/03 08:50:11;;;;;;;2.83;1.50;;;;;;;;;;5114205;28;20427;-58
2023/01/03 08:52:37;;;;;;;3.33;1.85;;;;;;;;;;5114059;28;20027;-56
2023/01/03 08:55:04;;;;;;;2.20;1.60;;;;;;;;;;5114870;28;20080;-58
2023/01/03 08:57:30;;;;;;;2.17;1.45;;;;;;;;;;5114372;28;20120;-55
2023/01/03 08:59:56;;;;;;;2.42;1.63;;;;;;;;;;5114398;28;20027;-57
2023/01/03 09:02:22;;;;;;;3.17;1.80;;;;;;;;;;5114296;28;20370;-57
2023/01/03 09:04:48;;;;;;;3.20;1.55;;;;;;;;;;5114409;28;20433;-56
2023/01/03 09:07:14;;;;;;;2.60;1.83;;;;;;;;;;5118302;28;20028;-57
2023/01/03 09:09:40;;;;;;;2.15;1.25;;;;;;;;;;5118257;28;20028;-57
2023/01/03 09:12:06;;;;;;;2.22;1.70;;;;;;;;;;5118048;28;20455;-57
2023/01/03 09:14:32;;;;;;;4.65;1.95;;;;;;;;;;5118723;28;20098;-55
2023/01/03 09:16:58;;;;;;;3.20;2.22;;;;;;;;;;5117974;28;20036;-58
2023/01/03 09:19:24;;;;;;;2.53;1.70;;;;;;;;;;5118594;28;20024;-57
2023/01/03 09:21:50;;;;;;;2.35;1.58;;;;;;;;;;5117993;28;20027;-55
2023/01/03 09:24:16;;;;;;;5.05;1.88;;;;;;;;;;5118189;28;20031;-57
2023/01/03 09:26:42;;;;;;;2.45;1.58;;;;;;;;;;5117755;28;20023;-57
2023/01/03 09:29:08;;;;;;;3.50;1.55;;;;;;;;;;5117726;28;20051;-57
2023/01/03 09:31:35;;;;;;;2.25;1.45;;;;;;;;;;5117726;28;20020;-56
2023/01/03 09:34:03;;;;;;;2.35;1.35;;;;;;;;;;5117734;28;20122;-54
2023/01/03 09:36:29;;;;;;;3.53;1.52;;;;;;;;;;5118261;28;20034;-58
2023/01/03 09:38:55;;;;;;;2.67;1.60;;;;;;;;;;5118041;28;20370;-57
2023/01/03 09:41:22;;;;;;;1.92;1.05;;;;;;;;;;5117322;28;20389;-57
2023/01/03 09:43:49;;;;;;;5.20;2.08;;;;;;;;;;5117616;28;20533;-57
2023/01/03 09:46:26;;;;;;;2.00;1.20;;;;;;;;;;5117879;28;20027;-57
2023/01/03 09:48:54;;;;;;;1.85;1.15;;;;;;;;;;5118442;28;20049;-57
2023/01/03 10:05:44;;;;;;;2.45;1.10;;;;;;;;;;5117351;28;20063;-56
2023/01/03 10:08:19;;;;;;;2.30;1.15;;;;;;;;;;5117084;28;20032;-57
2023/01/03 10:11:04;;;;;;;2.13;1.25;;;;;;;;;;5117581;28;20480;-59
2023/01/03 10:13:48;;;;;;;1.85;1.20;;;;;;;;;;5117015;28;20077;-58
2023/01/03 10:16:36;;;;;;;4.95;1.00;;;;;;;;;;5117151;28;20051;-57
2023/01/03 10:19:02;;;;;;;2.45;1.65;;;;;;;;;;5116642;28;20046;-56
2023/01/03 10:21:34;;;;;;;3.38;1.33;;;;;;;;;;5116661;28;20032;-57
2023/01/03 10:24:00;;;;;;;2.67;1.27;;;;;;;;;;5116949;28;20027;-56
2023/01/03 10:26:26;;;;;;;3.05;1.55;;;;;;;;;;5117595;28;20331;-58
2023/01/03 10:28:52;;;;;;;4.22;1.73;;;;;;;;;;5116477;28;20035;-57
2023/01/03 10:31:21;;;;;;;2.42;1.30;;;;;;;;;;5116789;28;20110;-58
2023/01/03 10:33:48;;;;;;;1.77;1.00;;;;;;;;;;5116694;28;20074;-58
2023/01/03 10:36:15;;;;;;;1.77;1.17;;;;;;;;;;5116857;28;20040;-58
2023/01/03 10:38:43;;;;;;;2.85;1.13;;;;;;;;;;5116485;28;20388;-55
2023/01/03 10:41:15;;;;;;;2.20;1.40;;;;;;;;;;5116391;28;20038;-57
2023/01/03 10:43:42;;;;;;;4.32;1.83;;;;;;;;;;5117209;28;20030;-58
2023/01/03 10:46:16;;;;;;;3.17;1.63;;;;;;;;;;5097725;28;20057;-57
2023/01/03 10:48:46;;;;;;;5.00;1.73;;;;;;;;;;5116485;28;20084;-55
2023/01/03 10:51:21;;;;;;;3.13;2.10;;;;;;;;;;5116312;28;20027;-56
2023/01/03 10:53:47;;;;;;;3.88;2.15;;;;;;;;;;5115899;28;20493;-57
2023/01/03 10:56:15;;;;;;;6.57;1.90;;;;;;;;;;5116659;28;20038;-57
2023/01/03 10:58:41;;;;;;;3.13;1.85;;;;;;;;;;5116171;28;20098;-57
2023/01/03 11:01:25;;;;;;;2.47;1.65;;;;;;;;;;5116123;28;20161;-54
2023/01/03 11:04:10;;;;;;;1.85;1.42;;;;;;;;;;5116986;28;20385;-56
2023/01/03 11:06:36;;;;;;;5.28;1.35;;;;;;;;;;5115612;28;20377;-52
2023/01/03 11:09:03;;;;;;;2.33;1.42;;;;;;;;;;5116320;28;20028;-57
2023/01/03 11:11:36;;;;;;;2.83;1.45;;;;;;;;;;5115992;28;20023;-55
2023/01/03 11:14:14;;;;;;;3.75;1.92;;;;;;;;;;5115857;28;20399;-55
2023/01/03 11:16:40;;;;;;;3.10;1.98;;;;;;;;;;5115464;28;20503;-55
2023/01/03 11:19:06;;;;;;;2.88;1.80;;;;;;;;;;5116582;28;20035;-55
2023/01/03 11:21:38;;;;;;;2.55;1.73;;;;;;;;;;5115776;28;20102;-54
2023/01/03 11:24:07;;;;;;;3.03;1.95;;;;;;;;;;5116261;28;20446;-56
2023/01/03 11:26:50;;;;;;;3.38;2.10;;;;;;;;;;5097869;28;20168;-55
2023/01/03 11:29:16;;;;;;;6.78;2.50;;;;;;;;;;5114251;28;20488;-57
2023/01/03 11:31:51;;;;;;;4.97;1.85;;;;;;;;;;5115692;28;20024;-57
2023/01/03 11:34:27;;;;;;;2.90;1.42;;;;;;;;;;5116038;28;20028;-53
2023/01/03 11:36:58;;;;;;;2.70;1.90;;;;;;;;;;5115613;28;20031;-57
2023/01/03 11:39:27;;;;;;;3.38;1.80;;;;;;;;;;5115698;28;20108;-56
2023/01/03 11:41:58;;;;;;;8.23;2.05;;;;;;;;;;5115599;28;20115;-55
2023/01/03 11:44:43;;;;;;;1.90;1.15;;;;;;;;;;5115497;28;20020;-58
2023/01/03 11:47:11;;;;;;;2.50;1.45;;;;;;;;;;5115364;28;20361;-58
2023/01/03 11:49:37;;;;;;;2.53;1.85;;;;;;;;;;5115114;28;20373;-57
2023/01/03 11:52:18;;;;;;;3.10;1.55;;;;;;;;;;5115152;28;20020;-56
2023/01/03 11:55:02;;;;;;;2.70;1.90;;;;;;;;;;5115161;28;20080;-55
2023/01/03 11:57:39;;;;;;;2.90;1.27;;;;;;;;;;5114810;28;20058;-57
2023/01/03 12:00:16;;;;;;;2.83;1.33;;;;;;;;;;5114870;28;20020;-54
2023/01/03 12:02:45;;;;;;;1.70;1.02;;;;;;;;;;5115500;28;20117;-56
2023/01/03 12:05:21;;;;;;;4.00;1.73;;;;;;;;;;5115116;28;20031;-55
2023/01/03 12:07:47;;;;;;;2.90;1.70;;;;;;;;;;5114823;28;20027;-57
2023/01/03 12:10:13;;;;;;;2.22;1.23;;;;;;;;;;5115294;28;20043;-56
2023/01/03 12:12:45;;;;;;;1.92;1.10;;;;;;;;;;5115441;28;20023;-56
2023/01/03 12:15:14;;;;;;;3.30;1.10;;;;;;;;;;5114636;28;20487;-57
2023/01/03 12:17:52;;;;;;;1.73;0.82;;;;;;;;;;5115199;28;20035;-57
2023/01/03 12:20:29;;;;;;;1.70;1.10;;;;;;;;;;5114864;28;20023;-57
2023/01/03 12:23:01;;;;;;;2.45;0.50;;;;;;;;;;5114505;28;20451;-56
2023/01/03 12:25:31;;;;;;;2.47;1.08;;;;;;;;;;5115440;28;20389;-57
2023/01/03 12:28:02;;;;;;;0.90;0.40;;;;;;;;;;5114753;28;20126;-53
2023/01/03 12:30:28;;;;;;;1.00;0.57;;;;;;;;;;5114914;28;20407;-56
2023/01/03 12:33:00;;;;;;;1.42;0.60;;;;;;;;;;5114802;28;20020;-54
2023/01/03 12:35:30;;;;;;;1.60;0.60;;;;;;;;;;5114535;28;20034;-56
2023/01/03 12:37:57;;;;;;;3.17;0.90;;;;;;;;;;5114433;28;20096;-55
2023/01/03 12:40:31;;;;;;;1.00;0.50;;;;;;;;;;5114029;28;20062;-57
2023/01/03 12:43:17;;;;;;;2.13;0.35;;;;;;;;;;5114412;28;20034;-56
2023/01/03 12:45:52;;;;;;;0.95;0.32;;;;;;;;;;5063365;28;20039;-56
2023/01/03 12:48:44;;;;;;;0.85;0.35;;;;;;;;;;5114619;28;20039;-55
2023/01/03 12:51:11;;;;;;;1.00;0.47;;;;;;;;;;5075723;28;20046;-56
2023/01/03 12:53:50;;;;;;;0.90;0.47;;;;;;;;;;5114225;28;20363;-57
2023/01/03 12:56:27;;;;;;;1.10;0.45;;;;;;;;;;5096626;28;20034;-57
2023/01/03 12:59:14;;;;;;;0.55;0.30;;;;;;;;;;5114489;28;20086;-57
2023/01/03 13:01:43;;;;;;;1.15;0.35;;;;;;;;;;5113999;28;20092;-57
2023/01/03 13:04:09;;;;;;;3.03;0.82;;;;;;;;;;5096211;28;20456;-53
2023/01/03 13:06:38;;;;;;;0.55;0.30;;;;;;;;;;5114090;28;20055;-56
2023/01/03 13:09:07;;;;;;;0.40;0.20;;;;;;;;;;5114627;28;20028;-53
2023/01/03 13:11:35;;;;;;;1.25;0.60;;;;;;;;;;5114063;28;20370;-54
2023/01/03 13:14:19;;;;;;;0.88;0.43;;;;;;;;;;5114381;28;20369;-56
2023/01/03 13:16:55;;;;;;;0.52;0.28;;;;;;;;;;5114024;28;20080;-57
2023/01/03 13:19:21;;;;;;;1.48;0.65;;;;;;;;;;5114009;28;20110;-57
2023/01/03 13:21:53;;;;;;;1.20;0.60;;;;;;;;;;5113681;28;20062;-55
2023/01/03 13:24:38;;;;;;;0.60;0.30;;;;;;;;;;5114573;28;20020;-54
2023/01/03 13:27:19;;;;;;;0.68;0.43;;;;;;;;;;5114145;28;20028;-52
2023/01/03 13:29:48;;;;;;;2.72;0.95;;;;;;;;;;5113774;28;20032;-56
2023/01/03 13:32:23;;;;;;;0.90;0.30;;;;;;;;;;5113954;28;20034;-51
2023/01/03 13:34:58;;;;;;;0.82;0.40;;;;;;;;;;5114422;28;20024;-57
2023/01/03 13:37:25;;;;;;;0.63;0.30;;;;;;;;;;5113832;28;20107;-56
2023/01/03 13:39:51;;;;;;;1.70;0.70;;;;;;;;;;5114337;28;20061;-54
2023/01/03 13:42:36;;;;;;;1.52;0.45;;;;;;;;;;5113807;28;20437;-57
2023/01/03 13:45:28;;;;;;;0.70;0.32;;;;;;;;;;5113821;28;20023;-55
2023/01/03 13:47:54;;;;;;;0.68;0.28;;;;;;;;;;5075018;28;20097;-56
2023/01/03 13:50:21;;;;;;;1.33;0.50;;;;;;;;;;5114036;28;20023;-56
2023/01/03 13:53:04;;;;;;;0.95;0.43;;;;;;;;;;5115657;28;20039;-56
2023/01/03 13:55:32;;;;;;;3.30;0.30;;;;;;;;;;5118323;28;20023;-57
2023/01/03 13:57:59;;;;;;;1.42;0.50;;;;;;;;;;5117034;28;20039;-56
2023/01/03 14:00:25;;;;;;;1.75;0.57;;;;;;;;;;5117635;28;20096;-56
2023/01/03 14:03:02;;;;;;;0.90;0.38;;;;;;;;;;5117579;28;20438;-56
2023/01/03 14:05:34;;;;;;;0.85;0.40;;;;;;;;;;5117244;28;20416;-57
2023/01/03 14:08:00;;;;;;;0.60;0.30;;;;;;;;;;5117776;28;20031;-55
2023/01/03 14:10:44;;;;;;;0.98;0.40;;;;;;;;;;5116841;28;20092;-57
2023/01/03 14:13:28;;;;;;;1.25;0.45;;;;;;;;;;5116836;28;20020;-57
2023/01/03 14:16:21;;;;;;;0.20;0.10;;;;;;;;;;5117485;28;20035;-54
2023/01/03 14:18:53;;;;;;;3.92;0.47;;;;;;;;;;5113254;28;20043;-55
2023/01/03 14:21:24;;;;;;;1.23;0.50;;;;;;;;;;5116981;28;20036;-56
2023/01/03 14:23:50;;;;;;;2.75;0.52;;;;;;;;;;5117725;28;20063;-56
2023/01/03 14:26:17;;;;;;;4.13;0.30;;;;;;;;;;5117145;28;20031;-55
2023/01/03 14:28:47;;;;;;;1.98;0.73;;;;;;;;;;5116824;28;20035;-57
2023/01/03 14:31:18;;;;;;;0.88;0.38;;;;;;;;;;5117665;28;20031;-57
2023/01/03 14:33:49;;;;;;;2.88;0.75;;;;;;;;;;5116637;28;20016;-57
2023/01/03 14:36:15;;;;;;;;;;;;;;;;;;5117369;28;20035;-56
2023/01/03 14:38:51;;;;;;;1.17;0.30;;;;;;;;;;5116529;28;19903;-57
2023/01/03 14:41:24;;;;;;;4.22;0.30;;;;;;;;;;5116680;28;20080;-56
2023/01/03 14:43:57;;;;;;;1.63;0.32;;;;;;;;;;5116712;28;20026;-55
2023/01/03 14:46:23;;;;;;;0.65;0.20;;;;;;;;;;5116195;28;20065;-56
2023/01/03 14:48:49;;;;;;;0.98;0.77;;;;;;;;;;5116379;28;20024;-57
2023/01/03 14:51:16;;;;;;;0.82;0.43;;;;;;;;;;5116429;28;20462;-55
2023/01/03 14:53:44;;;;;;;1.65;0.60;;;;;;;;;;5116355;28;20020;-56
2023/01/03 14:56:10;;;;;;;1.95;0.45;;;;;;;;;;5117151;28;20350;-57
2023/01/03 14:58:40;;;;;;;0.40;0.20;;;;;;;;;;5116495;28;20389;-56
2023/01/03 15:01:08;;;;;;;1.80;0.43;;;;;;;;;;5116777;28;20072;-56
2023/01/03 15:03:35;;;;;;;1.25;0.40;;;;;;;;;;5116699;28;20039;-56
2023/01/03 15:06:14;;;;;;;1.50;0.57;;;;;;;;;;5116550;28;20051;-56
2023/01/03 15:08:42;;;;;;;1.90;0.60;;;;;;;;;;5116806;28;20460;-57
2023/01/03 15:11:09;;;;;;;2.40;0.73;;;;;;;;;;5115908;28;20496;-55
2023/01/03 15:13:43;;;;;;;0.98;0.40;;;;;;;;;;5116369;28;20481;-57
2023/01/03 15:16:19;;;;;;;1.73;0.90;;;;;;;;;;5116068;28;20027;-56
2023/01/03 15:18:45;;;;;;;0.60;0.32;;;;;;;;;;5115793;28;20024;-56
2023/01/03 15:21:14;;;;;;;0.57;0.30;;;;;;;;;;5115773;28;20378;-57
2023/01/03 15:23:47;;;;;;;0.70;0.40;;;;;;;;;;5116124;28;20027;-56
2023/01/03 15:26:19;;;;;;;0.85;0.40;;;;;;;;;;5115380;28;20032;-57
2023/01/03 15:28:54;;;;;;;1.15;0.57;;;;;;;;;;5115855;28;20055;-55
2023/01/03 15:31:23;;;;;;;1.70;0.82;;;;;;;;;;5115596;28;20109;-57
2023/01/03 15:34:08;;;;;;;0.85;0.47;;;;;;;;;;5115504;28;20369;-56
2023/01/03 15:36:34;;;;;;;0.77;0.30;;;;;;;;;;5116109;28;20020;-54
2023/01/03 15:39:00;;;;;;;1.00;0.50;;;;;;;;;;5115373;28;20027;-57
2023/01/03 15:44:12;;;;;;;1.67;0.40;;;;;;;;;;5115479;28;20092;-57
2023/01/03 15:46:41;;;;;;;3.85;0.50;;;;;;;;;;5115711;28;20363;-57
2023/01/03 15:49:09;;;;;;;1.08;0.43;;;;;;;;;;5114968;28;20035;-58
2023/01/03 15:51:35;;;;;;;1.25;0.30;;;;;;;;;;5115510;28;20028;-55
2023/01/03 15:54:01;;;;;;;2.38;0.68;;;;;;;;;;5115176;28;20408;-57
2023/01/03 15:56:30;;;;;;;0.80;0.40;;;;;;;;;;5115342;28;20024;-56
2023/01/03 15:58:56;;;;;;;1.35;0.70;;;;;;;;;;5114978;28;20132;-57
2023/01/03 16:01:23;;;;;;;3.17;0.75;;;;;;;;;;5114809;28;20517;-55